sensor_id;sensor_type;location;lat;lon;timestamp;P1;durP1;ratioP1;P2;durP2;ratioP2
3095;SDS011;1558;42.700;23.360;2023-07-13T00:00:58;7.32;;;6.20;;
3095;SDS011;1558;42.700;23.360;2023-07-13T00:03:27;8.15;;;6.28;;
3095;SDS011;1558;42.700;23.360;2023-07-13T00:06:01;7.00;;;6.30;;
3095;SDS011;1558;42.700;23.360;2023-07-13T00:08:31;7.75;;;6.28;;
3095;SDS011;1558;42.700;23.360;2023-07-13T00:11:00;6.80;;;6.10;;
3095;SDS011;1558;42.700;23.360;2023-07-13T00:13:28;10.40;;;6.43;;
3095;SDS011;1558;42.700;23.360;2023-07-13T00:15:56;9.00;;;6.50;;
3095;SDS011;1558;42.700;23.360;2023-07-13T00:18:25;8.13;;;7.32;;
3095;SDS011;1558;42.700;23.360;2023-07-13T00:20:56;8.95;;;6.75;;
3095;SDS011;1558;42.700;23.360;2023-07-13T00:23:32;7.07;;;6.32;;
3095;SDS011;1558;42.700;23.360;2023-07-13T00:26:01;7.85;;;7.05;;
3095;SDS011;1558;42.700;23.360;2023-07-13T00:28:30;10.00;;;7.07;;
3095;SDS011;1558;42.700;23.360;2023-07-13T00:30:58;10.57;;;7.03;;
3095;SDS011;1558;42.700;23.360;2023-07-13T00:33:29;7.38;;;6.68;;
3095;SDS011;1558;42.700;23.360;2023-07-13T00:35:57;7.53;;;6.40;;
3095;SDS011;1558;42.700;23.360;2023-07-13T00:38:25;9.70;;;6.50;;
3095;SDS011;1558;42.700;23.360;2023-07-13T00:40:55;8.35;;;7.43;;
3095;SDS011;1558;42.700;23.360;2023-07-13T00:43:26;7.13;;;6.32;;
3095;SDS011;1558;42.700;23.360;2023-07-13T00:46:10;8.18;;;7.47;;
3095;SDS011;1558;42.700;23.360;2023-07-13T00:48:41;8.98;;;7.72;;
3095;SDS011;1558;42.700;23.360;2023-07-13T00:51:12;9.65;;;8.07;;
3095;SDS011;1558;42.700;23.360;2023-07-13T00:53:43;10.27;;;8.00;;
3095;SDS011;1558;42.700;23.360;2023-07-13T00:56:13;9.05;;;8.25;;
3095;SDS011;1558;42.700;23.360;2023-07-13T00:58:42;14.57;;;13.07;;
3095;SDS011;1558;42.700;23.360;2023-07-13T01:01:11;9.85;;;8.43;;
3095;SDS011;1558;42.700;23.360;2023-07-13T01:03:40;9.73;;;8.82;;
3095;SDS011;1558;42.700;23.360;2023-07-13T01:06:08;9.15;;;8.20;;
3095;SDS011;1558;42.700;23.360;2023-07-13T01:08:37;9.90;;;8.32;;
3095;SDS011;1558;42.700;23.360;2023-07-13T01:11:06;9.35;;;8.02;;
3095;SDS011;1558;42.700;23.360;2023-07-13T01:13:37;9.35;;;8.40;;
3095;SDS011;1558;42.700;23.360;2023-07-13T01:16:05;9.27;;;8.32;;
3095;SDS011;1558;42.700;23.360;2023-07-13T01:18:42;9.65;;;8.65;;
3095;SDS011;1558;42.700;23.360;2023-07-13T01:21:12;9.43;;;7.90;;
3095;SDS011;1558;42.700;23.360;2023-07-13T01:23:40;10.38;;;7.85;;
3095;SDS011;1558;42.700;23.360;2023-07-13T01:26:07;9.73;;;8.13;;
3095;SDS011;1558;42.700;23.360;2023-07-13T01:28:36;8.70;;;7.90;;
3095;SDS011;1558;42.700;23.360;2023-07-13T01:31:04;9.40;;;8.55;;
3095;SDS011;1558;42.700;23.360;2023-07-13T01:33:32;10.07;;;8.35;;
3095;SDS011;1558;42.700;23.360;2023-07-13T01:36:03;10.13;;;8.18;;
3095;SDS011;1558;42.700;23.360;2023-07-13T01:38:32;8.35;;;7.45;;
3095;SDS011;1558;42.700;23.360;2023-07-13T01:41:01;9.70;;;7.70;;
3095;SDS011;1558;42.700;23.360;2023-07-13T01:43:29;10.07;;;7.55;;
3095;SDS011;1558;42.700;23.360;2023-07-13T01:45:59;10.32;;;8.20;;
3095;SDS011;1558;42.700;23.360;2023-07-13T01:48:46;10.13;;;8.32;;
3095;SDS011;1558;42.700;23.360;2023-07-13T01:51:15;9.50;;;7.95;;
3095;SDS011;1558;42.700;23.360;2023-07-13T01:53:46;9.73;;;8.15;;
3095;SDS011;1558;42.700;23.360;2023-07-13T01:56:14;11.07;;;8.88;;
3095;SDS011;1558;42.700;23.360;2023-07-13T01:58:42;11.48;;;8.25;;
3095;SDS011;1558;42.700;23.360;2023-07-13T02:01:12;9.82;;;8.80;;
3095;SDS011;1558;42.700;23.360;2023-07-13T02:03:40;9.27;;;8.15;;
3095;SDS011;1558;42.700;23.360;2023-07-13T02:06:08;9.10;;;8.20;;
3095;SDS011;1558;42.700;23.360;2023-07-13T02:08:37;9.85;;;8.85;;
3095;SDS011;1558;42.700;23.360;2023-07-13T02:11:06;11.25;;;8.80;;
3095;SDS011;1558;42.700;23.360;2023-07-13T02:13:34;10.95;;;9.02;;
3095;SDS011;1558;42.700;23.360;2023-07-13T02:16:02;10.43;;;9.35;;
3095;SDS011;1558;42.700;23.360;2023-07-13T02:18:31;12.20;;;9.65;;
3095;SDS011;1558;42.700;23.360;2023-07-13T02:20:59;9.68;;;8.40;;
3095;SDS011;1558;42.700;23.360;2023-07-13T02:23:27;12.30;;;10.32;;
3095;SDS011;1558;42.700;23.360;2023-07-13T02:25:55;11.43;;;10.30;;
3095;SDS011;1558;42.700;23.360;2023-07-13T02:28:25;10.68;;;9.77;;
3095;SDS011;1558;42.700;23.360;2023-07-13T02:30:53;11.18;;;10.10;;
3095;SDS011;1558;42.700;23.360;2023-07-13T02:33:21;11.75;;;9.52;;
3095;SDS011;1558;42.700;23.360;2023-07-13T02:35:49;11.30;;;9.77;;
3095;SDS011;1558;42.700;23.360;2023-07-13T02:38:17;10.32;;;9.20;;
3095;SDS011;1558;42.700;23.360;2023-07-13T02:40:45;10.65;;;9.75;;
3095;SDS011;1558;42.700;23.360;2023-07-13T02:43:14;10.52;;;9.57;;
3095;SDS011;1558;42.700;23.360;2023-07-13T02:45:44;13.27;;;10.10;;
3095;SDS011;1558;42.700;23.360;2023-07-13T02:48:13;11.18;;;10.07;;
3095;SDS011;1558;42.700;23.360;2023-07-13T02:50:42;12.43;;;9.57;;
3095;SDS011;1558;42.700;23.360;2023-07-13T02:53:10;10.45;;;9.45;;
3095;SDS011;1558;42.700;23.360;2023-07-13T02:55:38;10.85;;;9.75;;
3095;SDS011;1558;42.700;23.360;2023-07-13T02:58:07;11.48;;;10.23;;
3095;SDS011;1558;42.700;23.360;2023-07-13T03:00:37;11.75;;;10.38;;
3095;SDS011;1558;42.700;23.360;2023-07-13T03:03:09;11.23;;;10.07;;
3095;SDS011;1558;42.700;23.360;2023-07-13T03:05:37;12.27;;;9.67;;
3095;SDS011;1558;42.700;23.360;2023-07-13T03:08:05;11.40;;;9.67;;
3095;SDS011;1558;42.700;23.360;2023-07-13T03:10:33;10.27;;;9.27;;
3095;SDS011;1558;42.700;23.360;2023-07-13T03:13:01;11.17;;;10.10;;
3095;SDS011;1558;42.700;23.360;2023-07-13T03:15:30;10.73;;;9.67;;
3095;SDS011;1558;42.700;23.360;2023-07-13T03:17:58;11.20;;;10.10;;
3095;SDS011;1558;42.700;23.360;2023-07-13T03:20:27;10.77;;;9.67;;
3095;SDS011;1558;42.700;23.360;2023-07-13T03:22:55;9.73;;;8.93;;
3095;SDS011;1558;42.700;23.360;2023-07-13T03:25:23;10.47;;;9.57;;
3095;SDS011;1558;42.700;23.360;2023-07-13T03:27:51;10.33;;;9.43;;
3095;SDS011;1558;42.700;23.360;2023-07-13T03:30:19;9.98;;;9.18;;
3095;SDS011;1558;42.700;23.360;2023-07-13T03:32:47;10.53;;;9.53;;
3095;SDS011;1558;42.700;23.360;2023-07-13T03:35:15;11.40;;;10.27;;
3095;SDS011;1558;42.700;23.360;2023-07-13T03:37:45;10.77;;;9.73;;
3095;SDS011;1558;42.700;23.360;2023-07-13T03:40:13;10.60;;;9.63;;
3095;SDS011;1558;42.700;23.360;2023-07-13T03:42:41;11.37;;;10.27;;
3095;SDS011;1558;42.700;23.360;2023-07-13T03:45:09;12.47;;;10.03;;
3095;SDS011;1558;42.700;23.360;2023-07-13T03:47:37;13.63;;;12.27;;
3095;SDS011;1558;42.700;23.360;2023-07-13T03:50:06;13.20;;;12.00;;
3095;SDS011;1558;42.700;23.360;2023-07-13T03:52:35;12.17;;;11.07;;
3095;SDS011;1558;42.700;23.360;2023-07-13T03:55:05;10.20;;;9.30;;
3095;SDS011;1558;42.700;23.360;2023-07-13T03:57:33;12.60;;;10.73;;
3095;SDS011;1558;42.700;23.360;2023-07-13T04:00:06;12.02;;;10.93;;
3095;SDS011;1558;42.700;23.360;2023-07-13T04:02:35;12.15;;;11.05;;
3095;SDS011;1558;42.700;23.360;2023-07-13T04:05:04;12.68;;;11.38;;
3095;SDS011;1558;42.700;23.360;2023-07-13T04:07:33;12.20;;;11.10;;
3095;SDS011;1558;42.700;23.360;2023-07-13T04:10:01;14.00;;;11.85;;
3095;SDS011;1558;42.700;23.360;2023-07-13T04:12:30;13.07;;;11.98;;
3095;SDS011;1558;42.700;23.360;2023-07-13T04:14:58;14.07;;;11.63;;
3095;SDS011;1558;42.700;23.360;2023-07-13T04:17:26;13.95;;;12.52;;
3095;SDS011;1558;42.700;23.360;2023-07-13T04:19:54;13.07;;;11.75;;
3095;SDS011;1558;42.700;23.360;2023-07-13T04:22:22;13.77;;;12.32;;
3095;SDS011;1558;42.700;23.360;2023-07-13T04:24:50;12.95;;;11.48;;
3095;SDS011;1558;42.700;23.360;2023-07-13T04:27:18;13.50;;;12.05;;
3095;SDS011;1558;42.700;23.360;2023-07-13T04:29:50;15.55;;;12.32;;
3095;SDS011;1558;42.700;23.360;2023-07-13T04:32:18;15.32;;;13.82;;
3095;SDS011;1558;42.700;23.360;2023-07-13T04:34:46;20.60;;;18.75;;
3095;SDS011;1558;42.700;23.360;2023-07-13T04:37:19;15.80;;;14.20;;
3095;SDS011;1558;42.700;23.360;2023-07-13T04:39:48;18.23;;;11.98;;
3095;SDS011;1558;42.700;23.360;2023-07-13T04:42:16;15.65;;;13.07;;
3095;SDS011;1558;42.700;23.360;2023-07-13T04:44:47;13.43;;;12.25;;
3095;SDS011;1558;42.700;23.360;2023-07-13T04:47:16;13.35;;;12.13;;
3095;SDS011;1558;42.700;23.360;2023-07-13T04:49:45;14.38;;;12.63;;
3095;SDS011;1558;42.700;23.360;2023-07-13T04:52:13;12.57;;;11.48;;
3095;SDS011;1558;42.700;23.360;2023-07-13T04:54:41;13.30;;;12.00;;
3095;SDS011;1558;42.700;23.360;2023-07-13T04:57:09;15.68;;;13.38;;
3095;SDS011;1558;42.700;23.360;2023-07-13T04:59:37;13.25;;;12.02;;
3095;SDS011;1558;42.700;23.360;2023-07-13T05:02:05;13.63;;;12.05;;
3095;SDS011;1558;42.700;23.360;2023-07-13T05:04:35;12.45;;;11.35;;
3095;SDS011;1558;42.700;23.360;2023-07-13T05:07:03;14.00;;;12.65;;
3095;SDS011;1558;42.700;23.360;2023-07-13T05:09:32;13.13;;;11.40;;
3095;SDS011;1558;42.700;23.360;2023-07-13T05:12:01;15.90;;;13.07;;
3095;SDS011;1558;42.700;23.360;2023-07-13T05:14:29;18.58;;;14.40;;
3095;SDS011;1558;42.700;23.360;2023-07-13T05:16:57;15.88;;;13.82;;
3095;SDS011;1558;42.700;23.360;2023-07-13T05:19:25;18.17;;;14.85;;
3095;SDS011;1558;42.700;23.360;2023-07-13T05:21:54;17.70;;;14.43;;
3095;SDS011;1558;42.700;23.360;2023-07-13T05:24:22;18.80;;;14.02;;
3095;SDS011;1558;42.700;23.360;2023-07-13T05:26:51;17.80;;;14.27;;
3095;SDS011;1558;42.700;23.360;2023-07-13T05:29:20;19.25;;;14.63;;
3095;SDS011;1558;42.700;23.360;2023-07-13T05:31:48;22.17;;;15.18;;
3095;SDS011;1558;42.700;23.360;2023-07-13T05:34:17;17.73;;;15.18;;
3095;SDS011;1558;42.700;23.360;2023-07-13T05:36:45;21.20;;;15.02;;
3095;SDS011;1558;42.700;23.360;2023-07-13T05:39:15;16.58;;;14.27;;
3095;SDS011;1558;42.700;23.360;2023-07-13T05:41:43;17.20;;;13.88;;
3095;SDS011;1558;42.700;23.360;2023-07-13T05:44:11;18.45;;;14.50;;
3095;SDS011;1558;42.700;23.360;2023-07-13T05:46:40;20.60;;;15.13;;
3095;SDS011;1558;42.700;23.360;2023-07-13T05:49:08;18.05;;;15.57;;
3095;SDS011;1558;42.700;23.360;2023-07-13T05:51:36;17.98;;;14.07;;
3095;SDS011;1558;42.700;23.360;2023-07-13T05:54:04;16.98;;;13.63;;
3095;SDS011;1558;42.700;23.360;2023-07-13T05:56:34;17.27;;;14.07;;
3095;SDS011;1558;42.700;23.360;2023-07-13T05:59:02;16.30;;;14.02;;
3095;SDS011;1558;42.700;23.360;2023-07-13T06:01:30;15.18;;;13.65;;
3095;SDS011;1558;42.700;23.360;2023-07-13T06:03:58;15.25;;;13.80;;
3095;SDS011;1558;42.700;23.360;2023-07-13T06:06:26;16.83;;;14.98;;
3095;SDS011;1558;42.700;23.360;2023-07-13T06:08:55;16.10;;;13.38;;
3095;SDS011;1558;42.700;23.360;2023-07-13T06:11:24;15.43;;;13.63;;
3095;SDS011;1558;42.700;23.360;2023-07-13T06:13:55;14.88;;;13.30;;
3095;SDS011;1558;42.700;23.360;2023-07-13T06:16:24;15.32;;;13.73;;
3095;SDS011;1558;42.700;23.360;2023-07-13T06:18:53;15.85;;;14.30;;
3095;SDS011;1558;42.700;23.360;2023-07-13T06:21:22;15.00;;;13.55;;
3095;SDS011;1558;42.700;23.360;2023-07-13T06:23:51;14.98;;;13.50;;
3095;SDS011;1558;42.700;23.360;2023-07-13T06:26:20;13.82;;;12.50;;
3095;SDS011;1558;42.700;23.360;2023-07-13T06:28:49;14.25;;;12.93;;
3095;SDS011;1558;42.700;23.360;2023-07-13T06:31:19;14.52;;;12.95;;
3095;SDS011;1558;42.700;23.360;2023-07-13T06:33:47;15.18;;;13.70;;
3095;SDS011;1558;42.700;23.360;2023-07-13T06:36:15;14.40;;;13.00;;
3095;SDS011;1558;42.700;23.360;2023-07-13T06:38:43;14.07;;;12.77;;
3095;SDS011;1558;42.700;23.360;2023-07-13T06:41:11;14.75;;;13.25;;
3095;SDS011;1558;42.700;23.360;2023-07-13T06:43:40;14.82;;;13.27;;
3095;SDS011;1558;42.700;23.360;2023-07-13T06:46:08;13.88;;;12.43;;
3095;SDS011;1558;42.700;23.360;2023-07-13T06:48:38;14.52;;;11.77;;
3095;SDS011;1558;42.700;23.360;2023-07-13T06:51:07;13.38;;;12.02;;
3095;SDS011;1558;42.700;23.360;2023-07-13T06:53:37;14.23;;;12.82;;
3095;SDS011;1558;42.700;23.360;2023-07-13T06:56:05;13.60;;;12.40;;
3095;SDS011;1558;42.700;23.360;2023-07-13T06:58:35;14.02;;;12.10;;
3095;SDS011;1558;42.700;23.360;2023-07-13T07:01:04;13.13;;;11.07;;
3095;SDS011;1558;42.700;23.360;2023-07-13T07:03:34;13.00;;;11.73;;
3095;SDS011;1558;42.700;23.360;2023-07-13T07:06:06;15.07;;;12.25;;
3095;SDS011;1558;42.700;23.360;2023-07-13T07:08:41;12.20;;;10.93;;
3095;SDS011;1558;42.700;23.360;2023-07-13T07:11:11;12.60;;;10.73;;
3095;SDS011;1558;42.700;23.360;2023-07-13T07:13:41;12.43;;;11.15;;
3095;SDS011;1558;42.700;23.360;2023-07-13T07:16:09;12.90;;;11.52;;
3095;SDS011;1558;42.700;23.360;2023-07-13T07:18:37;12.27;;;11.05;;
3095;SDS011;1558;42.700;23.360;2023-07-13T07:21:06;21.23;;;19.50;;
3095;SDS011;1558;42.700;23.360;2023-07-13T07:23:36;13.38;;;11.85;;
3095;SDS011;1558;42.700;23.360;2023-07-13T07:26:04;13.98;;;11.60;;
3095;SDS011;1558;42.700;23.360;2023-07-13T07:28:33;11.88;;;10.68;;
3095;SDS011;1558;42.700;23.360;2023-07-13T07:31:05;12.18;;;11.05;;
3095;SDS011;1558;42.700;23.360;2023-07-13T07:33:37;11.65;;;10.45;;
3095;SDS011;1558;42.700;23.360;2023-07-13T07:36:06;13.18;;;11.93;;
3095;SDS011;1558;42.700;23.360;2023-07-13T07:38:37;12.90;;;11.75;;
3095;SDS011;1558;42.700;23.360;2023-07-13T07:41:05;13.15;;;11.88;;
3095;SDS011;1558;42.700;23.360;2023-07-13T07:43:36;11.88;;;10.45;;
3095;SDS011;1558;42.700;23.360;2023-07-13T07:46:08;14.27;;;10.77;;
3095;SDS011;1558;42.700;23.360;2023-07-13T07:48:37;12.18;;;11.15;;
3095;SDS011;1558;42.700;23.360;2023-07-13T07:51:06;12.90;;;11.20;;
3095;SDS011;1558;42.700;23.360;2023-07-13T07:53:34;13.95;;;10.95;;
3095;SDS011;1558;42.700;23.360;2023-07-13T07:56:02;11.85;;;10.70;;
3095;SDS011;1558;42.700;23.360;2023-07-13T07:58:51;11.50;;;10.40;;
3095;SDS011;1558;42.700;23.360;2023-07-13T08:01:22;12.80;;;10.68;;
3095;SDS011;1558;42.700;23.360;2023-07-13T08:03:53;11.25;;;10.35;;
3095;SDS011;1558;42.700;23.360;2023-07-13T08:06:29;11.73;;;10.40;;
3095;SDS011;1558;42.700;23.360;2023-07-13T08:09:02;16.30;;;11.00;;
3095;SDS011;1558;42.700;23.360;2023-07-13T08:11:31;11.10;;;10.10;;
3095;SDS011;1558;42.700;23.360;2023-07-13T08:14:02;11.20;;;10.00;;
3095;SDS011;1558;42.700;23.360;2023-07-13T08:16:30;11.43;;;10.45;;
3095;SDS011;1558;42.700;23.360;2023-07-13T08:19:00;10.75;;;9.75;;
3095;SDS011;1558;42.700;23.360;2023-07-13T08:21:32;13.20;;;11.32;;
3095;SDS011;1558;42.700;23.360;2023-07-13T08:24:00;11.30;;;9.93;;
3095;SDS011;1558;42.700;23.360;2023-07-13T08:26:28;12.10;;;11.00;;
3095;SDS011;1558;42.700;23.360;2023-07-13T08:28:56;12.07;;;10.90;;
3095;SDS011;1558;42.700;23.360;2023-07-13T08:31:24;11.80;;;10.60;;
3095;SDS011;1558;42.700;23.360;2023-07-13T08:33:52;11.88;;;10.73;;
3095;SDS011;1558;42.700;23.360;2023-07-13T08:36:23;13.32;;;11.82;;
3095;SDS011;1558;42.700;23.360;2023-07-13T08:38:58;13.27;;;11.77;;
3095;SDS011;1558;42.700;23.360;2023-07-13T08:41:26;13.05;;;11.20;;
3095;SDS011;1558;42.700;23.360;2023-07-13T08:43:56;11.25;;;10.18;;
3095;SDS011;1558;42.700;23.360;2023-07-13T08:46:28;12.40;;;11.18;;
3095;SDS011;1558;42.700;23.360;2023-07-13T08:49:02;12.55;;;11.23;;
3095;SDS011;1558;42.700;23.360;2023-07-13T08:51:34;12.73;;;11.45;;
3095;SDS011;1558;42.700;23.360;2023-07-13T08:54:12;12.65;;;11.38;;
3095;SDS011;1558;42.700;23.360;2023-07-13T08:56:48;13.55;;;11.57;;
3095;SDS011;1558;42.700;23.360;2023-07-13T08:59:21;12.25;;;10.55;;
3095;SDS011;1558;42.700;23.360;2023-07-13T09:02:00;11.63;;;10.65;;
3095;SDS011;1558;42.700;23.360;2023-07-13T09:04:42;11.30;;;10.40;;
3095;SDS011;1558;42.700;23.360;2023-07-13T09:07:21;13.75;;;11.25;;
3095;SDS011;1558;42.700;23.360;2023-07-13T09:10:04;13.10;;;11.75;;
3095;SDS011;1558;42.700;23.360;2023-07-13T09:12:45;16.52;;;12.52;;
3095;SDS011;1558;42.700;23.360;2023-07-13T09:15:22;13.02;;;11.05;;
3095;SDS011;1558;42.700;23.360;2023-07-13T09:17:59;12.15;;;11.02;;
3095;SDS011;1558;42.700;23.360;2023-07-13T09:20:33;13.68;;;12.30;;
3095;SDS011;1558;42.700;23.360;2023-07-13T09:23:07;13.15;;;11.60;;
3095;SDS011;1558;42.700;23.360;2023-07-13T09:25:42;14.05;;;12.75;;
3095;SDS011;1558;42.700;23.360;2023-07-13T09:28:15;13.07;;;11.98;;
3095;SDS011;1558;42.700;23.360;2023-07-13T09:30:49;14.32;;;11.98;;
3095;SDS011;1558;42.700;23.360;2023-07-13T09:33:20;13.15;;;12.00;;
3095;SDS011;1558;42.700;23.360;2023-07-13T09:35:49;14.77;;;13.43;;
3095;SDS011;1558;42.700;23.360;2023-07-13T09:38:18;14.07;;;12.77;;
3095;SDS011;1558;42.700;23.360;2023-07-13T09:40:58;13.52;;;12.32;;
3095;SDS011;1558;42.700;23.360;2023-07-13T09:43:36;14.70;;;13.32;;
3095;SDS011;1558;42.700;23.360;2023-07-13T09:46:07;15.45;;;13.90;;
3095;SDS011;1558;42.700;23.360;2023-07-13T09:48:51;15.90;;;14.50;;
3095;SDS011;1558;42.700;23.360;2023-07-13T09:51:26;13.27;;;11.80;;
3095;SDS011;1558;42.700;23.360;2023-07-13T09:53:54;13.80;;;12.40;;
3095;SDS011;1558;42.700;23.360;2023-07-13T09:56:26;12.70;;;11.43;;
3095;SDS011;1558;42.700;23.360;2023-07-13T09:58:58;13.68;;;12.45;;
3095;SDS011;1558;42.700;23.360;2023-07-13T10:01:34;14.00;;;12.55;;
3095;SDS011;1558;42.700;23.360;2023-07-13T10:04:09;14.35;;;13.15;;
3095;SDS011;1558;42.700;23.360;2023-07-13T10:06:40;14.85;;;11.82;;
3095;SDS011;1558;42.700;23.360;2023-07-13T10:09:10;12.35;;;11.18;;
3095;SDS011;1558;42.700;23.360;2023-07-13T10:11:44;15.20;;;10.43;;
3095;SDS011;1558;42.700;23.360;2023-07-13T10:14:13;13.82;;;12.48;;
3095;SDS011;1558;42.700;23.360;2023-07-13T10:16:44;11.73;;;10.50;;
3095;SDS011;1558;42.700;23.360;2023-07-13T10:19:14;12.27;;;11.18;;
3095;SDS011;1558;42.700;23.360;2023-07-13T10:21:50;15.85;;;12.07;;
3095;SDS011;1558;42.700;23.360;2023-07-13T10:24:22;12.57;;;11.48;;
3095;SDS011;1558;42.700;23.360;2023-07-13T10:26:55;16.40;;;11.55;;
3095;SDS011;1558;42.700;23.360;2023-07-13T10:29:28;11.85;;;10.55;;
3095;SDS011;1558;42.700;23.360;2023-07-13T10:32:00;12.32;;;11.10;;
3095;SDS011;1558;42.700;23.360;2023-07-13T10:34:29;14.00;;;11.35;;
3095;SDS011;1558;42.700;23.360;2023-07-13T10:36:57;13.00;;;10.40;;
3095;SDS011;1558;42.700;23.360;2023-07-13T10:39:26;11.98;;;9.48;;
3095;SDS011;1558;42.700;23.360;2023-07-13T10:41:58;14.82;;;9.45;;
3095;SDS011;1558;42.700;23.360;2023-07-13T10:44:30;12.88;;;8.30;;
3095;SDS011;1558;42.700;23.360;2023-07-13T10:47:01;9.43;;;8.60;;
3095;SDS011;1558;42.700;23.360;2023-07-13T10:49:33;9.27;;;7.85;;
3095;SDS011;1558;42.700;23.360;2023-07-13T10:52:04;8.98;;;8.18;;
3095;SDS011;1558;42.700;23.360;2023-07-13T10:54:33;8.50;;;7.65;;
3095;SDS011;1558;42.700;23.360;2023-07-13T10:59:49;10.57;;;8.40;;
3095;SDS011;1558;42.700;23.360;2023-07-13T11:02:42;9.70;;;7.82;;
3095;SDS011;1558;42.700;23.360;2023-07-13T11:05:17;10.43;;;8.90;;
3095;SDS011;1558;42.700;23.360;2023-07-13T11:07:55;9.60;;;8.73;;
3095;SDS011;1558;42.700;23.360;2023-07-13T11:13:37;9.93;;;8.48;;
3095;SDS011;1558;42.700;23.360;2023-07-13T11:16:38;10.98;;;9.10;;
3095;SDS011;1558;42.700;23.360;2023-07-13T11:19:24;10.57;;;8.48;;
3095;SDS011;1558;42.700;23.360;2023-07-13T11:22:12;13.13;;;8.07;;
3095;SDS011;1558;42.700;23.360;2023-07-13T11:24:50;9.15;;;8.18;;
3095;SDS011;1558;42.700;23.360;2023-07-13T11:27:27;9.88;;;8.73;;
3095;SDS011;1558;42.700;23.360;2023-07-13T11:30:23;8.95;;;8.25;;
3095;SDS011;1558;42.700;23.360;2023-07-13T11:33:03;10.90;;;7.60;;
3095;SDS011;1558;42.700;23.360;2023-07-13T11:35:41;9.65;;;7.60;;
3095;SDS011;1558;42.700;23.360;2023-07-13T11:38:14;9.60;;;7.30;;
3095;SDS011;1558;42.700;23.360;2023-07-13T11:40:46;8.57;;;7.75;;
3095;SDS011;1558;42.700;23.360;2023-07-13T11:43:21;9.02;;;8.13;;
3095;SDS011;1558;42.700;23.360;2023-07-13T11:45:53;7.90;;;7.20;;
3095;SDS011;1558;42.700;23.360;2023-07-13T11:48:23;9.93;;;8.10;;
3095;SDS011;1558;42.700;23.360;2023-07-13T11:50:57;12.65;;;8.20;;
3095;SDS011;1558;42.700;23.360;2023-07-13T11:53:28;11.35;;;8.60;;
3095;SDS011;1558;42.700;23.360;2023-07-13T11:55:58;14.63;;;8.45;;
3095;SDS011;1558;42.700;23.360;2023-07-13T11:58:26;8.32;;;7.65;;
3095;SDS011;1558;42.700;23.360;2023-07-13T12:00:59;9.80;;;8.27;;
3095;SDS011;1558;42.700;23.360;2023-07-13T12:03:31;10.35;;;8.25;;
3095;SDS011;1558;42.700;23.360;2023-07-13T12:06:03;9.07;;;8.15;;
3095;SDS011;1558;42.700;23.360;2023-07-13T12:08:37;10.63;;;8.35;;
3095;SDS011;1558;42.700;23.360;2023-07-13T12:11:11;11.30;;;9.82;;
3095;SDS011;1558;42.700;23.360;2023-07-13T12:13:44;10.05;;;8.77;;
3095;SDS011;1558;42.700;23.360;2023-07-13T12:16:16;9.65;;;8.32;;
3095;SDS011;1558;42.700;23.360;2023-07-13T12:18:50;8.48;;;7.85;;
3095;SDS011;1558;42.700;23.360;2023-07-13T12:21:21;10.68;;;8.45;;
3095;SDS011;1558;42.700;23.360;2023-07-13T12:23:56;9.43;;;8.50;;
3095;SDS011;1558;42.700;23.360;2023-07-13T12:26:24;15.13;;;8.73;;
3095;SDS011;1558;42.700;23.360;2023-07-13T12:28:53;9.65;;;8.60;;
3095;SDS011;1558;42.700;23.360;2023-07-13T12:31:25;9.32;;;7.90;;
3095;SDS011;1558;42.700;23.360;2023-07-13T12:33:59;13.38;;;7.72;;
3095;SDS011;1558;42.700;23.360;2023-07-13T12:36:32;10.02;;;7.88;;
3095;SDS011;1558;42.700;23.360;2023-07-13T12:39:04;12.73;;;8.10;;
3095;SDS011;1558;42.700;23.360;2023-07-13T12:41:40;9.10;;;6.97;;
3095;SDS011;1558;42.700;23.360;2023-07-13T12:44:12;8.32;;;7.50;;
3095;SDS011;1558;42.700;23.360;2023-07-13T12:46:54;9.05;;;7.05;;
3095;SDS011;1558;42.700;23.360;2023-07-13T12:49:28;8.32;;;7.15;;
3095;SDS011;1558;42.700;23.360;2023-07-13T12:52:03;12.60;;;7.05;;
3095;SDS011;1558;42.700;23.360;2023-07-13T12:54:32;11.15;;;7.55;;
3095;SDS011;1558;42.700;23.360;2023-07-13T12:57:00;10.25;;;7.20;;
3095;SDS011;1558;42.700;23.360;2023-07-13T12:59:30;9.15;;;6.97;;
3095;SDS011;1558;42.700;23.360;2023-07-13T13:02:07;8.10;;;7.30;;
3095;SDS011;1558;42.700;23.360;2023-07-13T13:04:50;9.55;;;7.57;;
3095;SDS011;1558;42.700;23.360;2023-07-13T13:07:18;12.13;;;7.65;;
3095;SDS011;1558;42.700;23.360;2023-07-13T13:09:46;9.50;;;7.40;;
3095;SDS011;1558;42.700;23.360;2023-07-13T13:12:14;9.10;;;7.30;;
3095;SDS011;1558;42.700;23.360;2023-07-13T13:14:43;7.78;;;6.90;;
3095;SDS011;1558;42.700;23.360;2023-07-13T13:17:16;10.98;;;7.20;;
3095;SDS011;1558;42.700;23.360;2023-07-13T13:19:47;11.18;;;6.90;;
3095;SDS011;1558;42.700;23.360;2023-07-13T13:22:16;12.40;;;7.15;;
3095;SDS011;1558;42.700;23.360;2023-07-13T13:24:44;10.82;;;6.72;;
3095;SDS011;1558;42.700;23.360;2023-07-13T13:27:14;7.63;;;6.60;;
3095;SDS011;1558;42.700;23.360;2023-07-13T13:29:45;9.63;;;7.10;;
3095;SDS011;1558;42.700;23.360;2023-07-13T13:32:13;7.45;;;6.75;;
3095;SDS011;1558;42.700;23.360;2023-07-13T13:34:43;9.32;;;7.32;;
3095;SDS011;1558;42.700;23.360;2023-07-13T13:37:18;12.60;;;6.90;;
3095;SDS011;1558;42.700;23.360;2023-07-13T13:39:48;11.07;;;7.00;;
3095;SDS011;1558;42.700;23.360;2023-07-13T13:42:34;7.38;;;6.30;;
3095;SDS011;1558;42.700;23.360;2023-07-13T13:45:02;9.75;;;6.90;;
3095;SDS011;1558;42.700;23.360;2023-07-13T13:47:32;10.70;;;7.28;;
3095;SDS011;1558;42.700;23.360;2023-07-13T13:50:09;8.63;;;6.78;;
3095;SDS011;1558;42.700;23.360;2023-07-13T13:52:41;8.75;;;6.88;;
3095;SDS011;1558;42.700;23.360;2023-07-13T13:55:13;8.25;;;6.50;;
3095;SDS011;1558;42.700;23.360;2023-07-13T13:57:41;9.93;;;6.25;;
3095;SDS011;1558;42.700;23.360;2023-07-13T14:00:10;7.30;;;5.88;;
3095;SDS011;1558;42.700;23.360;2023-07-13T14:02:43;10.13;;;6.53;;
3095;SDS011;1558;42.700;23.360;2023-07-13T14:05:15;11.50;;;7.07;;
3095;SDS011;1558;42.700;23.360;2023-07-13T14:07:47;10.77;;;6.57;;
3095;SDS011;1558;42.700;23.360;2023-07-13T14:10:16;9.07;;;7.43;;
3095;SDS011;1558;42.700;23.360;2023-07-13T14:12:46;10.52;;;6.40;;
3095;SDS011;1558;42.700;23.360;2023-07-13T14:15:19;7.68;;;6.05;;
3095;SDS011;1558;42.700;23.360;2023-07-13T14:17:50;10.32;;;6.70;;
3095;SDS011;1558;42.700;23.360;2023-07-13T14:20:19;9.93;;;6.60;;
3095;SDS011;1558;42.700;23.360;2023-07-13T14:22:50;7.70;;;6.85;;
3095;SDS011;1558;42.700;23.360;2023-07-13T14:25:19;8.68;;;6.25;;
3095;SDS011;1558;42.700;23.360;2023-07-13T14:27:48;10.85;;;6.53;;
3095;SDS011;1558;42.700;23.360;2023-07-13T14:30:20;9.38;;;6.20;;
3095;SDS011;1558;42.700;23.360;2023-07-13T14:32:50;9.57;;;6.57;;
3095;SDS011;1558;42.700;23.360;2023-07-13T14:35:20;8.70;;;6.85;;
3095;SDS011;1558;42.700;23.360;2023-07-13T14:37:50;10.77;;;6.05;;
3095;SDS011;1558;42.700;23.360;2023-07-13T14:40:19;17.95;;;8.77;;
3095;SDS011;1558;42.700;23.360;2023-07-13T14:42:52;13.60;;;6.20;;
3095;SDS011;1558;42.700;23.360;2023-07-13T14:45:20;13.15;;;7.53;;
3095;SDS011;1558;42.700;23.360;2023-07-13T14:47:50;8.85;;;6.80;;
3095;SDS011;1558;42.700;23.360;2023-07-13T14:50:20;7.95;;;6.82;;
3095;SDS011;1558;42.700;23.360;2023-07-13T14:52:52;11.15;;;5.97;;
3095;SDS011;1558;42.700;23.360;2023-07-13T14:55:20;9.93;;;7.50;;
3095;SDS011;1558;42.700;23.360;2023-07-13T14:57:48;7.60;;;6.28;;
3095;SDS011;1558;42.700;23.360;2023-07-13T15:00:18;12.32;;;9.52;;
3095;SDS011;1558;42.700;23.360;2023-07-13T15:02:48;10.05;;;7.03;;
3095;SDS011;1558;42.700;23.360;2023-07-13T15:05:22;12.10;;;7.15;;
3095;SDS011;1558;42.700;23.360;2023-07-13T15:07:53;11.75;;;7.53;;
3095;SDS011;1558;42.700;23.360;2023-07-13T15:10:22;10.65;;;6.93;;
3095;SDS011;1558;42.700;23.360;2023-07-13T15:12:51;8.88;;;7.10;;